Terminal Aerodrome Forecast
Issued by NWS Cleveland, OH

Home | Current Version | Previous Version | Graphics & Text | Print | Product List | Glossary Off
Versions: 1 2 3 4 5 6 7 8 9 10 11 12 13 14 15 16 17

134
FTUS41 KCLE 182132 AAA
TAFERI
TAF AMD
KERI 182132Z 1822/1918 18014G22KT 2SM SHRA OVC035
     FM190000 19015G30KT 6SM -SHRA OVC015
     FM190400 31020G38KT 4SM -SHRA OVC006
     FM191200 30020G30KT 6SM -SHRA BR OVC012=

USA.gov is the U.S. government's official web portal to all federal, state and local government web resources and services.